createdAt,value
2018-01-19T00:02:17.659Z,11.10
2018-01-19T00:04:46.901Z,6.60
2018-01-19T00:07:15.358Z,8.03
2018-01-19T00:09:43.898Z,9.70
2018-01-19T00:12:12.526Z,10.27
2018-01-19T00:14:41.002Z,9.90
2018-01-19T00:17:10.290Z,7.17
2018-01-19T00:19:38.754Z,6.77
2018-01-19T00:22:07.689Z,5.73
2018-01-19T00:24:36.136Z,6.97
2018-01-19T00:27:04.646Z,7.10
2018-01-19T00:29:33.120Z,6.83
2018-01-19T00:32:01.373Z,6.10
2018-01-19T00:34:29.862Z,6.20
2018-01-19T00:36:58.338Z,5.20
2018-01-19T00:39:26.821Z,9.67
2018-01-19T00:41:55.315Z,5.33
2018-01-19T00:44:23.793Z,5.20
2018-01-19T00:46:52.298Z,9.07
2018-01-19T00:49:20.760Z,6.60
2018-01-19T00:51:49.224Z,4.33
2018-01-19T00:54:17.674Z,8.77
2018-01-19T00:56:46.921Z,7.53
2018-01-19T00:59:15.375Z,6.87
2018-01-19T01:01:43.848Z,8.27
2018-01-19T01:04:12.347Z,10.83
2018-01-19T01:06:40.810Z,8.57
2018-01-19T01:09:09.284Z,6.67
2018-01-19T01:11:37.891Z,5.53
2018-01-19T01:14:06.359Z,6.73
2018-01-19T01:16:34.836Z,5.47
2018-01-19T01:19:03.288Z,4.83
2018-01-19T01:21:32.526Z,5.93
2018-01-19T01:24:01.010Z,4.53
2018-01-19T01:26:29.488Z,8.67
2018-01-19T01:28:57.961Z,3.17
2018-01-19T01:31:26.421Z,4.13
2018-01-19T01:33:54.880Z,6.70
2018-01-19T01:36:24.128Z,9.10
2018-01-19T01:38:52.642Z,1.23
2018-01-19T01:41:21.183Z,3.57
2018-01-19T01:43:49.638Z,4.10
2018-01-19T01:46:18.138Z,5.17
2018-01-19T01:48:45.935Z,4.43
2018-01-19T01:51:14.250Z,3.70
2018-01-19T01:53:42.736Z,4.10
2018-01-19T01:56:11.185Z,4.83
2018-01-19T01:58:41.118Z,5.00
2018-01-19T02:01:11.220Z,5.13
2018-01-19T02:03:40.708Z,4.13
2018-01-19T02:06:08.860Z,4.43
2018-01-19T02:08:37.345Z,4.40
2018-01-19T02:11:05.821Z,4.40
2018-01-19T02:13:34.277Z,5.87
2018-01-19T02:16:02.761Z,5.10
2018-01-19T02:18:31.253Z,2.43
2018-01-19T02:20:59.731Z,5.17
2018-01-19T02:23:28.211Z,6.83
2018-01-19T02:25:56.673Z,7.50
2018-01-19T02:28:25.133Z,5.63
2018-01-19T02:30:53.631Z,4.97
2018-01-19T02:33:22.113Z,5.87
2018-01-19T02:35:50.580Z,3.57
2018-01-19T02:38:19.062Z,3.57
2018-01-19T02:40:47.539Z,4.07
2018-01-19T02:43:16.016Z,4.07
2018-01-19T02:45:44.482Z,2.23
2018-01-19T02:48:13.730Z,7.50
2018-01-19T02:50:42.188Z,5.00
2018-01-19T02:53:10.684Z,2.93
2018-01-19T02:55:40.020Z,3.90
2018-01-19T02:58:09.802Z,1.63
2018-01-19T03:00:39.311Z,3.00
2018-01-19T03:03:07.870Z,1.43
2018-01-19T03:05:36.336Z,2.30
2018-01-19T03:08:04.828Z,2.30
2018-01-19T03:10:33.300Z,0.67
2018-01-19T03:13:01.784Z,0.60
2018-01-19T03:15:30.271Z,0.70
2018-01-19T03:17:58.725Z,1.43
2018-01-19T03:20:27.197Z,1.87
2018-01-19T03:22:55.692Z,1.30
2018-01-19T03:25:23.839Z,1.57
2018-01-19T03:27:53.075Z,1.53
2018-01-19T03:30:21.578Z,1.53
2018-01-19T03:32:50.055Z,0.90
2018-01-19T03:35:18.525Z,1.13
2018-01-19T03:37:46.981Z,2.17
2018-01-19T03:40:15.434Z,1.03
2018-01-19T03:42:44.670Z,0.80
2018-01-19T03:45:13.122Z,1.00
2018-01-19T03:47:41.569Z,2.13
2018-01-19T03:50:10.082Z,1.30
2018-01-19T03:52:38.809Z,1.93
2018-01-19T03:55:07.310Z,1.63
2018-01-19T03:57:35.763Z,2.80
2018-01-19T04:00:03.905Z,3.40
2018-01-19T04:02:32.364Z,4.10
2018-01-19T04:05:01.582Z,3.27
2018-01-19T04:07:30.079Z,1.90
2018-01-19T04:09:58.554Z,3.43
2018-01-19T04:12:27.010Z,2.63
2018-01-19T04:14:55.555Z,2.00
2018-01-19T04:17:24.012Z,3.33
2018-01-19T04:19:52.479Z,1.80
2018-01-19T04:22:20.931Z,3.57
2018-01-19T04:24:49.389Z,2.33
2018-01-19T04:27:18.614Z,3.37
2018-01-19T04:29:47.119Z,2.47
2018-01-19T04:32:15.596Z,3.23
2018-01-19T04:34:43.904Z,2.20
2018-01-19T04:37:12.354Z,1.83
2018-01-19T04:39:40.636Z,5.17
2018-01-19T04:42:09.098Z,2.97
2018-01-19T04:44:38.242Z,1.97
2018-01-19T04:47:06.716Z,4.17
2018-01-19T04:49:35.210Z,2.63
2018-01-19T04:52:04.430Z,2.67
2018-01-19T04:54:32.894Z,2.60
2018-01-19T04:57:02.146Z,1.20
2018-01-19T04:59:30.609Z,1.57
2018-01-19T05:01:59.057Z,2.20
2018-01-19T05:04:27.560Z,1.00
2018-01-19T05:06:56.013Z,2.37
2018-01-19T05:09:25.271Z,2.73
2018-01-19T05:11:53.760Z,1.43
2018-01-19T05:14:22.213Z,1.67
2018-01-19T05:16:50.687Z,1.70
2018-01-19T05:19:19.172Z,1.53
2018-01-19T05:21:47.618Z,3.10
2018-01-19T05:24:16.069Z,2.33
2018-01-19T05:26:44.521Z,2.90
2018-01-19T05:29:12.965Z,1.90
2018-01-19T05:31:41.467Z,2.37
2018-01-19T05:34:10.301Z,1.70
2018-01-19T05:36:39.515Z,3.83
2018-01-19T05:39:07.953Z,2.80
2018-01-19T05:41:36.082Z,3.23
2018-01-19T05:44:04.530Z,4.10
2018-01-19T05:46:33.774Z,5.73
2018-01-19T05:49:02.248Z,6.57
2018-01-19T05:51:30.702Z,4.10
2018-01-19T05:53:59.211Z,2.73
2018-01-19T05:56:27.653Z,2.83
2018-01-19T05:58:56.883Z,1.30
2018-01-19T06:01:25.345Z,0.80
2018-01-19T06:03:53.829Z,1.23
2018-01-19T06:06:22.302Z,1.33
2018-01-19T06:08:50.749Z,1.10
2018-01-19T06:11:19.225Z,1.60
2018-01-19T06:13:47.789Z,2.20
2018-01-19T06:16:16.247Z,2.33
2018-01-19T06:18:44.693Z,2.27
2018-01-19T06:21:13.329Z,1.70
2018-01-19T06:23:41.801Z,2.23
2018-01-19T06:26:10.272Z,1.97
2018-01-19T06:28:39.791Z,2.87
2018-01-19T06:31:08.773Z,1.57
2018-01-19T06:33:37.274Z,2.40
2018-01-19T06:36:05.731Z,1.93
2018-01-19T06:38:34.186Z,4.57
2018-01-19T06:41:02.658Z,2.90
2018-01-19T06:43:31.157Z,5.07
2018-01-19T06:45:59.448Z,2.27
2018-01-19T06:48:27.900Z,4.50
2018-01-19T06:50:56.349Z,3.00
2018-01-19T06:53:25.598Z,2.50
2018-01-19T06:55:54.054Z,2.40
2018-01-19T06:58:22.530Z,4.00
2018-01-19T07:00:50.997Z,4.17
2018-01-19T07:03:20.210Z,3.53
2018-01-19T07:05:48.650Z,3.80
2018-01-19T07:08:17.217Z,3.70
2018-01-19T07:10:45.666Z,3.10
2018-01-19T07:13:14.115Z,4.70
2018-01-19T07:15:42.597Z,5.50
2018-01-19T07:18:11.130Z,4.87
2018-01-19T07:20:39.583Z,5.10
2018-01-19T07:23:08.388Z,4.70
2018-01-19T07:25:36.874Z,6.07
2018-01-19T07:28:05.361Z,4.73
2018-01-19T07:30:33.853Z,5.63
2018-01-19T07:33:02.369Z,4.90
2018-01-19T07:35:30.851Z,3.73
2018-01-19T07:37:59.305Z,5.43
2018-01-19T07:40:28.363Z,3.93
2018-01-19T07:42:56.672Z,6.40
2018-01-19T07:45:25.730Z,4.77
2018-01-19T07:47:54.187Z,3.57
2018-01-19T07:50:22.668Z,3.40
2018-01-19T07:52:51.165Z,5.13
2018-01-19T07:55:19.618Z,3.07
2018-01-19T07:57:48.083Z,3.27
2018-01-19T08:00:16.555Z,7.27
2018-01-19T08:02:45.791Z,5.43
2018-01-19T08:05:14.254Z,5.30
2018-01-19T08:07:42.727Z,4.27
2018-01-19T08:10:11.193Z,7.20
2018-01-19T08:12:40.919Z,5.10
2018-01-19T08:15:09.540Z,5.57
2018-01-19T08:17:38.104Z,5.60
2018-01-19T08:20:06.376Z,3.20
2018-01-19T08:22:34.854Z,3.43
2018-01-19T08:25:03.320Z,4.73
2018-01-19T08:27:31.830Z,4.90
2018-01-19T08:30:00.300Z,6.33
2018-01-19T08:32:29.760Z,7.13
2018-01-19T08:34:59.014Z,5.50
2018-01-19T08:37:27.498Z,4.97
2018-01-19T08:39:55.965Z,6.87
2018-01-19T08:42:25.439Z,5.67
2018-01-19T08:44:53.922Z,7.50
2018-01-19T08:47:22.437Z,6.43
2018-01-19T08:49:50.941Z,4.50
2018-01-19T08:52:20.372Z,4.53
2018-01-19T08:54:49.609Z,5.50
2018-01-19T08:57:18.090Z,7.27
2018-01-19T08:59:46.546Z,6.80
2018-01-19T09:02:15.038Z,7.60
2018-01-19T09:04:43.503Z,5.80
2018-01-19T09:07:12.033Z,7.33
2018-01-19T09:09:41.398Z,5.40
2018-01-19T09:12:10.598Z,5.27
2018-01-19T09:14:39.701Z,4.73
2018-01-19T09:17:08.764Z,6.27
2018-01-19T09:19:37.237Z,5.10
2018-01-19T09:22:05.725Z,7.23
2018-01-19T09:24:34.214Z,10.23
2018-01-19T09:27:02.669Z,8.33
2018-01-19T09:29:31.909Z,8.47
2018-01-19T09:32:00.424Z,3.07
2018-01-19T10:56:26.884Z,6.70
2018-01-19T10:58:56.124Z,3.90
2018-01-19T11:01:24.657Z,4.77
2018-01-19T11:03:53.291Z,8.83
2018-01-19T11:06:21.777Z,4.97
2018-01-19T11:08:50.254Z,4.57
2018-01-19T11:11:18.720Z,4.07
2018-01-19T11:13:47.192Z,8.97
2018-01-19T11:16:15.699Z,4.77
2018-01-19T11:18:44.148Z,4.77
2018-01-19T11:21:12.612Z,5.27
2018-01-19T11:23:41.844Z,4.03
2018-01-19T11:26:10.321Z,3.93
2018-01-19T11:28:39.370Z,7.30
2018-01-19T11:31:09.170Z,4.67
2018-01-19T11:33:37.653Z,8.37
2018-01-19T11:36:06.111Z,5.70
2018-01-19T11:38:34.574Z,5.80
2018-01-19T11:41:03.040Z,6.00
2018-01-19T11:43:31.519Z,5.23
2018-01-19T11:45:59.997Z,3.30
2018-01-19T11:48:28.445Z,5.97
2018-01-19T11:50:57.696Z,4.57
2018-01-19T11:53:26.212Z,4.97
2018-01-19T11:55:54.648Z,4.80
2018-01-19T11:58:23.098Z,4.70
2018-01-19T12:00:52.367Z,5.33
2018-01-19T12:03:20.822Z,2.80
2018-01-19T12:05:49.296Z,5.63
2018-01-19T12:08:17.876Z,3.03
2018-01-19T12:10:46.358Z,3.07
2018-01-19T12:13:14.829Z,6.87
2018-01-19T12:15:43.305Z,5.33
2018-01-19T12:18:11.796Z,6.50
2018-01-19T12:20:41.045Z,3.10
2018-01-19T12:23:11.105Z,3.17
2018-01-19T12:25:39.779Z,4.23
2018-01-19T12:28:08.603Z,6.30
2018-01-19T12:30:37.116Z,5.50
2018-01-19T12:33:05.737Z,4.67
2018-01-19T12:35:34.221Z,3.33
2018-01-19T12:38:02.687Z,4.40
2018-01-19T12:40:31.145Z,3.27
2018-01-19T12:43:00.385Z,3.73
2018-01-19T12:45:28.857Z,5.17
2018-01-19T12:47:57.311Z,5.50
2018-01-19T12:50:25.810Z,4.13
2018-01-19T12:52:54.271Z,3.27
2018-01-19T12:55:22.773Z,1.83
2018-01-19T12:57:51.233Z,2.87
2018-01-19T13:00:19.688Z,3.30
2018-01-19T13:02:48.959Z,5.30
2018-01-19T13:05:17.413Z,6.87
2018-01-19T13:07:45.861Z,4.83
2018-01-19T13:10:15.124Z,2.60
2018-01-19T13:12:43.580Z,2.50
2018-01-19T13:15:12.063Z,5.93
2018-01-19T13:17:40.550Z,5.63
2018-01-19T13:20:10.036Z,4.47
2018-01-19T13:22:39.124Z,2.93
2018-01-19T13:25:07.793Z,2.50
2018-01-19T13:27:37.586Z,3.33
2018-01-19T13:30:06.824Z,6.03
2018-01-19T13:32:35.281Z,7.80
2018-01-19T13:35:03.728Z,8.80
2018-01-19T13:37:32.963Z,7.57
2018-01-19T13:40:01.414Z,5.17
2018-01-19T13:42:30.674Z,5.93
2018-01-19T13:44:59.141Z,5.03
2018-01-19T13:47:27.632Z,4.30
2018-01-19T13:49:56.095Z,6.90
2018-01-19T13:52:24.563Z,5.23
2018-01-19T13:54:53.030Z,3.77
2018-01-19T13:57:21.481Z,3.70
2018-01-19T13:59:50.728Z,4.20
2018-01-19T14:02:19.177Z,3.10
2018-01-19T14:04:47.657Z,4.33
2018-01-19T14:07:16.171Z,4.87
2018-01-19T14:09:44.647Z,2.77
2018-01-19T14:12:13.102Z,3.17
2018-01-19T14:14:41.595Z,3.77
2018-01-19T14:17:10.799Z,3.20
2018-01-19T14:19:39.884Z,3.70
2018-01-19T14:22:08.956Z,2.70
2018-01-19T14:24:38.232Z,2.97
2018-01-19T14:27:06.709Z,3.30
2018-01-19T14:29:35.176Z,3.87
2018-01-19T14:32:03.654Z,3.33
2018-01-19T14:34:32.162Z,4.03
2018-01-19T14:37:01.386Z,3.07
2018-01-19T14:39:29.927Z,5.13
2018-01-19T14:41:58.397Z,3.50
2018-01-19T14:44:26.876Z,2.90
2018-01-19T14:46:55.372Z,4.17
2018-01-19T14:49:23.824Z,4.30
2018-01-19T14:51:52.305Z,4.47
2018-01-19T14:54:20.774Z,2.73
2018-01-19T14:56:49.281Z,5.57
2018-01-19T14:59:18.699Z,2.37
2018-01-19T15:01:47.185Z,6.30
2018-01-19T15:04:16.461Z,4.60
2018-01-19T15:06:44.950Z,3.53
2018-01-19T15:09:13.414Z,3.90
2018-01-19T15:11:41.879Z,4.07
2018-01-19T15:14:11.404Z,3.00
2018-01-19T15:16:39.855Z,4.97
2018-01-19T15:19:08.333Z,5.33
2018-01-19T15:21:36.798Z,6.07
2018-01-19T15:24:05.305Z,7.40
2018-01-19T15:26:33.782Z,4.43
2018-01-19T15:29:02.264Z,3.73
2018-01-19T15:31:30.737Z,4.87
2018-01-19T15:33:59.176Z,4.67
2018-01-19T15:36:28.394Z,3.83
2018-01-19T15:38:56.911Z,4.27
2018-01-19T15:41:26.391Z,3.90
2018-01-19T15:43:54.943Z,5.47
2018-01-19T15:46:24.157Z,4.20
2018-01-19T15:48:52.640Z,5.90
2018-01-19T15:51:21.167Z,6.83
2018-01-19T15:53:49.630Z,9.77
2018-01-19T15:56:18.168Z,12.40
2018-01-19T15:58:47.390Z,7.93
2018-01-19T16:01:15.945Z,6.80
2018-01-19T16:03:45.169Z,6.30
2018-01-19T16:06:13.678Z,6.20
2018-01-19T16:08:42.128Z,6.53
2018-01-19T16:11:10.589Z,4.20
2018-01-19T16:13:39.102Z,3.63
2018-01-19T16:16:07.569Z,9.40
2018-01-19T16:18:36.033Z,34.93
2018-01-19T16:21:05.341Z,14.13
2018-01-19T16:23:33.857Z,10.17
2018-01-19T16:26:02.321Z,7.37
2018-01-19T16:28:30.804Z,6.23
2018-01-19T16:30:59.324Z,9.07
2018-01-19T16:33:27.773Z,5.47
2018-01-19T16:35:56.235Z,5.80
2018-01-19T16:38:24.715Z,5.80
2018-01-19T16:40:53.346Z,5.70
2018-01-19T16:43:21.782Z,9.07
2018-01-19T16:45:50.273Z,5.33
2018-01-19T16:48:18.765Z,4.80
2018-01-19T16:50:47.364Z,3.63
2018-01-19T16:53:15.826Z,4.87
2018-01-19T16:55:44.403Z,2.40
2018-01-19T16:58:12.875Z,4.37
2018-01-19T17:00:41.348Z,7.63
2018-01-19T17:03:10.506Z,4.27
2018-01-19T17:05:39.844Z,3.97
2018-01-19T17:08:08.322Z,6.10
2018-01-19T17:10:36.778Z,4.93
2018-01-19T17:13:05.252Z,5.93
2018-01-19T17:15:33.808Z,6.30
2018-01-19T17:18:03.046Z,4.90
2018-01-19T17:20:31.327Z,6.93
2018-01-19T17:22:59.774Z,6.37
2018-01-19T17:25:29.057Z,7.20
2018-01-19T17:27:57.531Z,7.50
2018-01-19T17:30:26.029Z,7.37
2018-01-19T17:32:55.262Z,9.67
2018-01-19T17:35:23.699Z,9.73
2018-01-19T17:37:52.939Z,14.37
2018-01-19T17:40:21.479Z,18.13
2018-01-19T17:42:50.715Z,15.30
2018-01-19T17:45:19.210Z,17.00
2018-01-19T17:47:47.507Z,15.97
2018-01-19T17:50:16.057Z,13.13
2018-01-19T17:52:44.514Z,9.40
2018-01-19T17:55:12.996Z,10.17
2018-01-19T17:57:41.456Z,10.13
2018-01-19T18:00:11.032Z,8.67
2018-01-19T18:02:39.520Z,10.37
2018-01-19T18:05:08.375Z,8.80
2018-01-19T18:07:36.865Z,8.90
2018-01-19T18:10:05.023Z,9.03
2018-01-19T18:12:33.515Z,7.57
2018-01-19T18:15:01.982Z,7.53
2018-01-19T18:17:30.469Z,7.37
2018-01-19T18:19:59.007Z,7.90
2018-01-19T18:22:28.247Z,8.30
2018-01-19T18:24:56.707Z,7.60
2018-01-19T18:27:25.175Z,6.97
2018-01-19T18:29:53.665Z,6.70
2018-01-19T18:32:22.152Z,6.93
2018-01-19T18:34:50.700Z,6.97
2018-01-19T18:37:19.584Z,9.60
2018-01-19T18:39:48.808Z,9.13
2018-01-19T18:42:17.284Z,9.13
2018-01-19T18:44:45.843Z,9.57
2018-01-19T18:47:15.089Z,9.77
2018-01-19T18:49:43.565Z,9.07
2018-01-19T18:52:12.013Z,10.63
2018-01-19T18:54:40.703Z,10.10
2018-01-19T18:57:09.205Z,9.30
2018-01-19T18:59:37.825Z,9.50
2018-01-19T19:02:06.301Z,7.80
2018-01-19T19:04:34.810Z,8.00
2018-01-19T19:07:04.053Z,8.40
2018-01-19T19:09:32.779Z,7.97
2018-01-19T19:12:01.241Z,8.53
2018-01-19T19:14:29.770Z,6.93
2018-01-19T19:16:58.218Z,6.77
2018-01-19T19:19:26.700Z,9.40
2018-01-19T19:21:55.917Z,10.50
2018-01-19T19:24:24.401Z,7.33
2018-01-19T19:26:52.672Z,8.30
2018-01-19T19:29:21.147Z,5.73
2018-01-19T19:31:50.377Z,5.77
2018-01-19T19:34:18.886Z,6.00
2018-01-19T19:36:47.360Z,4.70
2018-01-19T19:39:15.589Z,5.23
2018-01-19T19:41:44.051Z,5.27
2018-01-19T19:44:13.344Z,4.13
2018-01-19T19:46:42.605Z,4.03
2018-01-19T19:49:11.375Z,3.00
2018-01-19T19:51:40.520Z,3.67
2018-01-19T19:54:10.161Z,2.90
2018-01-19T19:56:39.247Z,3.50
2018-01-19T19:59:07.747Z,5.00
2018-01-19T20:01:36.236Z,4.20
2018-01-19T20:04:04.827Z,4.83
2018-01-19T20:06:33.286Z,4.00
2018-01-19T20:09:01.863Z,2.97
2018-01-19T20:11:30.337Z,3.37
2018-01-19T20:13:58.804Z,3.80
2018-01-19T20:16:27.239Z,2.80
2018-01-19T20:18:55.766Z,2.63
2018-01-19T20:21:24.236Z,3.13
2018-01-19T20:23:52.697Z,2.70
2018-01-19T20:26:21.920Z,2.83
2018-01-19T20:28:50.194Z,2.80
2018-01-19T20:31:18.471Z,4.37
2018-01-19T20:33:47.019Z,3.57
2018-01-19T20:36:15.505Z,3.37
2018-01-19T20:38:44.827Z,4.77
2018-01-19T20:41:13.103Z,9.03
2018-01-19T20:43:41.667Z,9.57
2018-01-19T20:46:11.476Z,10.47
2018-01-19T20:48:40.717Z,7.83
2018-01-19T20:51:09.229Z,6.80
2018-01-19T20:53:37.708Z,5.17
2018-01-19T20:56:06.193Z,5.43
2018-01-19T20:58:34.639Z,4.03
2018-01-19T21:01:03.143Z,4.13
2018-01-19T21:03:31.408Z,3.00
2018-01-19T21:05:59.929Z,3.27
2018-01-19T21:08:29.174Z,2.90
2018-01-19T21:10:57.733Z,3.63
2018-01-19T21:13:26.009Z,2.37
2018-01-19T21:15:54.599Z,2.23
2018-01-19T21:18:23.072Z,2.57
2018-01-19T21:20:51.539Z,2.03
2018-01-19T21:23:19.996Z,1.87
2018-01-19T21:25:49.330Z,1.70
2018-01-19T21:28:17.840Z,1.83
2018-01-19T21:30:46.340Z,2.33
2018-01-19T21:33:14.836Z,2.93
2018-01-19T21:35:44.169Z,3.13
2018-01-19T21:38:12.648Z,3.20
2018-01-19T21:40:41.475Z,3.47
2018-01-19T21:43:10.157Z,2.90
2018-01-19T21:45:39.432Z,4.40
2018-01-19T21:48:07.917Z,3.73
2018-01-19T21:50:36.395Z,4.60
2018-01-19T21:53:04.874Z,5.33
2018-01-19T21:55:33.053Z,5.77
2018-01-19T21:58:01.517Z,5.50
2018-01-19T22:00:30.082Z,7.27
2018-01-19T22:02:58.547Z,5.77
2018-01-19T22:05:29.893Z,5.57
2018-01-19T22:07:59.109Z,6.80
2018-01-19T22:10:27.608Z,7.03
2018-01-19T22:12:56.047Z,6.83
2018-01-19T22:15:25.354Z,7.70
2018-01-19T22:17:53.656Z,6.67
2018-01-19T22:20:22.137Z,7.83
2018-01-19T22:22:50.409Z,6.87
2018-01-19T22:25:18.971Z,6.20
2018-01-19T22:27:47.422Z,5.90
2018-01-19T22:30:16.699Z,5.37
2018-01-19T22:32:45.167Z,5.77
2018-01-19T22:35:13.641Z,7.57
2018-01-19T22:37:43.965Z,7.30
2018-01-19T22:40:12.452Z,10.03
2018-01-19T22:42:40.974Z,11.27
2018-01-19T22:45:10.218Z,11.60
2018-01-19T22:47:39.480Z,10.27
2018-01-19T22:50:07.930Z,10.17
2018-01-19T22:52:36.373Z,10.53
2018-01-19T22:55:04.230Z,8.13
2018-01-19T22:57:32.686Z,11.83
2018-01-19T23:00:01.155Z,9.20
2018-01-19T23:02:30.379Z,11.13
2018-01-19T23:04:58.935Z,8.40
2018-01-19T23:07:28.166Z,8.17
2018-01-19T23:09:56.647Z,8.47
2018-01-19T23:12:25.085Z,8.17
2018-01-19T23:14:54.359Z,8.57
2018-01-19T23:17:22.842Z,7.43
2018-01-19T23:19:51.464Z,8.13
2018-01-19T23:22:19.940Z,9.63
2018-01-19T23:24:48.420Z,8.90
2018-01-19T23:27:16.904Z,9.50
2018-01-19T23:29:46.297Z,8.47
2018-01-19T23:32:14.780Z,8.67
2018-01-19T23:34:43.286Z,9.27
2018-01-19T23:37:11.756Z,7.70
2018-01-19T23:39:40.837Z,7.30
2018-01-19T23:42:09.434Z,9.40
2018-01-19T23:44:37.906Z,6.90
2018-01-19T23:47:06.381Z,8.57
2018-01-19T23:49:34.845Z,8.47
2018-01-19T23:52:03.333Z,7.80
2018-01-19T23:54:31.961Z,8.90
2018-01-19T23:57:00.110Z,8.27
2018-01-19T23:59:28.570Z,7.60
